createdAt,value
2018-04-12T00:01:54.366Z,95.20
2018-04-12T00:04:21.956Z,95.30
2018-04-12T00:06:49.563Z,95.20
2018-04-12T00:09:17.239Z,95.20
2018-04-12T00:11:44.798Z,95.10
2018-04-12T00:14:12.382Z,94.80
2018-04-12T00:16:39.987Z,94.90
2018-04-12T00:19:07.524Z,94.90
2018-04-12T00:21:40.882Z,95.10
2018-04-12T00:24:08.442Z,95.30
2018-04-12T00:26:36.012Z,95.40
2018-04-12T00:29:03.572Z,95.40
2018-04-12T00:31:31.120Z,95.40
2018-04-12T00:33:58.711Z,95.50
2018-04-12T00:36:26.260Z,95.70
2018-04-12T00:38:54.057Z,96.00
2018-04-12T00:41:21.572Z,96.30
2018-04-12T00:43:49.156Z,96.40
2018-04-12T00:46:17.651Z,96.70
2018-04-12T00:48:45.220Z,96.70
2018-04-12T00:51:12.844Z,96.70
2018-04-12T00:53:52.184Z,96.80
2018-04-12T00:56:20.170Z,97.10
2018-04-12T00:58:47.765Z,97.10
2018-04-12T01:01:15.329Z,97.10
2018-04-12T01:03:42.882Z,97.20
2018-04-12T01:06:10.452Z,97.40
2018-04-12T01:08:38.036Z,97.40
2018-04-12T01:11:05.768Z,97.40
2018-04-12T01:13:33.316Z,97.70
2018-04-12T01:16:00.853Z,97.60
2018-04-12T01:18:28.841Z,98.10
2018-04-12T01:20:57.835Z,98.20
2018-04-12T01:23:25.524Z,98.00
2018-04-12T01:25:56.003Z,98.20
2018-04-12T01:28:23.569Z,98.30
2018-04-12T01:30:51.299Z,98.40
2018-04-12T01:33:18.862Z,98.40
2018-04-12T01:35:46.540Z,98.30
2018-04-12T01:38:16.058Z,98.50
2018-04-12T01:40:43.626Z,98.70
2018-04-12T01:43:11.195Z,98.90
2018-04-12T01:45:38.730Z,98.80
2018-04-12T01:48:06.696Z,98.70
2018-04-12T01:50:34.290Z,98.70
2018-04-12T01:53:01.884Z,98.90
2018-04-12T01:55:29.431Z,98.80
2018-04-12T01:57:57.802Z,98.80
2018-04-12T02:00:25.980Z,98.70
2018-04-12T02:02:53.551Z,98.70
2018-04-12T02:05:21.088Z,98.50
2018-04-12T02:07:49.384Z,98.40
2018-04-12T02:10:18.131Z,98.30
2018-04-12T02:12:45.696Z,98.30
2018-04-12T02:15:14.087Z,98.20
2018-04-12T02:17:41.814Z,98.30
2018-04-12T02:20:09.604Z,98.40
2018-04-12T02:22:37.178Z,98.70
2018-04-12T02:25:05.056Z,98.80
2018-04-12T02:27:32.662Z,98.70
2018-04-12T02:30:00.245Z,98.50
2018-04-12T02:32:27.865Z,98.80
2018-04-12T02:34:58.654Z,98.80
2018-04-12T02:37:26.344Z,99.00
2018-04-12T02:39:53.951Z,99.10
2018-04-12T02:42:21.575Z,99.10
2018-04-12T02:44:49.136Z,99.10
2018-04-12T02:47:16.721Z,99.20
2018-04-12T02:49:44.534Z,99.20
2018-04-12T02:52:12.120Z,99.50
2018-04-12T02:54:39.978Z,99.60
2018-04-12T02:57:07.534Z,99.80
2018-04-12T02:59:35.212Z,99.80
2018-04-12T03:02:02.801Z,99.80
2018-04-12T03:04:30.788Z,99.80
2018-04-12T03:07:00.936Z,99.80
2018-04-12T03:09:28.509Z,99.80
2018-04-12T03:11:56.038Z,99.80
2018-04-12T03:14:23.623Z,99.80
2018-04-12T03:16:51.755Z,99.80
2018-04-12T03:19:19.320Z,99.80
2018-04-12T03:21:46.903Z,99.80
2018-04-12T03:24:15.240Z,99.60
2018-04-12T03:26:42.798Z,99.80
2018-04-12T03:29:10.393Z,99.80
2018-04-12T03:31:38.818Z,99.80
2018-04-12T03:34:06.388Z,99.70
2018-04-12T03:36:34.069Z,99.80
2018-04-12T03:39:02.563Z,99.70
2018-04-12T03:41:30.164Z,99.70
2018-04-12T03:43:57.705Z,99.80
2018-04-12T03:46:25.442Z,99.80
2018-04-12T03:48:53.017Z,99.80
2018-04-12T03:51:20.567Z,99.80
2018-04-12T03:53:52.083Z,99.80
2018-04-12T03:56:20.552Z,99.80
2018-04-12T03:58:48.121Z,99.80
2018-04-12T04:01:15.693Z,99.80
2018-04-12T04:03:44.027Z,99.80
2018-04-12T04:06:11.600Z,99.80
2018-04-12T04:08:39.251Z,99.80
2018-04-12T04:11:06.808Z,99.80
2018-04-12T04:13:34.605Z,99.80
2018-04-12T04:16:14.007Z,99.80
2018-04-12T04:18:53.268Z,99.80
2018-04-12T04:21:21.749Z,99.80
2018-04-12T04:23:50.196Z,99.80
2018-04-12T04:26:20.195Z,99.80
2018-04-12T04:28:47.775Z,99.80
2018-04-12T04:31:15.322Z,99.80
2018-04-12T04:33:43.701Z,99.80
2018-04-12T04:36:11.527Z,99.80
2018-04-12T04:38:39.087Z,99.80
2018-04-12T04:41:06.627Z,99.80
2018-04-12T04:43:34.233Z,99.80
2018-04-12T04:46:02.364Z,99.80
2018-04-12T04:48:30.415Z,99.80
2018-04-12T04:50:58.063Z,99.80
2018-04-12T04:53:25.610Z,99.80
2018-04-12T04:55:53.152Z,99.80
2018-04-12T04:58:21.098Z,99.80
2018-04-12T05:00:49.871Z,99.80
2018-04-12T05:03:17.395Z,99.80
2018-04-12T05:05:45.014Z,99.80
2018-04-12T05:08:13.504Z,99.80
2018-04-12T05:10:41.674Z,99.80
2018-04-12T05:13:09.220Z,99.80
2018-04-12T05:15:36.867Z,99.80
2018-04-12T05:18:05.004Z,99.80
2018-04-12T05:20:32.568Z,99.80
2018-04-12T05:23:00.828Z,99.80
2018-04-12T05:25:28.476Z,99.80
2018-04-12T05:27:56.602Z,99.40
2018-04-12T05:30:24.397Z,99.40
2018-04-12T05:32:51.951Z,99.30
2018-04-12T05:35:21.848Z,99.40
2018-04-12T05:37:49.420Z,99.20
2018-04-12T05:40:17.321Z,98.90
2018-04-12T05:42:45.430Z,99.10
2018-04-12T05:45:13.929Z,99.10
2018-04-12T05:47:41.503Z,98.90
2018-04-12T05:50:09.378Z,99.00
2018-04-12T05:52:37.528Z,99.10
2018-04-12T05:55:06.075Z,99.00
2018-04-12T05:57:34.572Z,98.70
2018-04-12T06:00:02.434Z,98.70
2018-04-12T06:02:30.039Z,98.80
2018-04-12T06:04:57.641Z,98.60
2018-04-12T06:07:25.360Z,98.60
2018-04-12T06:09:53.687Z,98.40
2018-04-12T06:12:21.775Z,98.10
2018-04-12T06:14:49.420Z,97.70
2018-04-12T06:17:16.979Z,97.20
2018-04-12T06:19:45.003Z,97.20
2018-04-12T06:22:12.844Z,96.60
2018-04-12T06:24:41.224Z,96.40
2018-04-12T06:27:08.793Z,95.70
2018-04-12T06:29:36.635Z,95.30
2018-04-12T06:32:04.678Z,94.90
2018-04-12T06:34:32.267Z,94.50
2018-04-12T06:37:00.667Z,93.80
2018-04-12T06:39:29.916Z,93.50
2018-04-12T06:41:57.537Z,93.10
2018-04-12T06:44:25.125Z,92.30
2018-04-12T06:46:53.266Z,92.30
2018-04-12T06:49:20.928Z,92.20
2018-04-12T06:51:48.701Z,92.60
2018-04-12T06:54:16.263Z,92.40
2018-04-12T06:56:44.035Z,92.30
2018-04-12T06:59:11.752Z,92.20
2018-04-12T07:01:39.309Z,92.40
2018-04-12T07:04:07.991Z,91.70
2018-04-12T07:06:39.638Z,92.20
2018-04-12T07:09:09.483Z,92.10
2018-04-12T07:11:37.233Z,91.10
2018-04-12T07:14:04.816Z,90.50
2018-04-12T07:16:33.319Z,90.20
2018-04-12T07:19:01.270Z,89.10
2018-04-12T07:21:28.810Z,89.10
2018-04-12T07:23:56.378Z,88.50
2018-04-12T07:26:24.760Z,87.50
2018-04-12T07:28:52.301Z,88.00
2018-04-12T07:31:19.891Z,87.20
2018-04-12T07:33:47.415Z,86.40
2018-04-12T07:36:15.009Z,86.10
2018-04-12T07:38:44.789Z,85.50
2018-04-12T07:41:12.360Z,85.20
2018-04-12T07:43:40.191Z,84.00
2018-04-12T07:46:08.429Z,83.70
2018-04-12T07:48:36.024Z,83.70
2018-04-12T07:51:04.290Z,81.50
2018-04-12T07:53:33.175Z,81.90
2018-04-12T07:56:01.125Z,81.00
2018-04-12T07:58:28.862Z,81.00
2018-04-12T08:00:56.443Z,79.60
2018-04-12T08:03:24.052Z,80.80
2018-04-12T08:05:51.609Z,80.40
2018-04-12T08:08:19.215Z,80.30
2018-04-12T08:10:47.222Z,80.20
2018-04-12T08:13:15.402Z,79.40
2018-04-12T08:15:43.011Z,79.40
2018-04-12T08:18:10.592Z,79.70
2018-04-12T08:20:38.153Z,79.30
2018-04-12T08:23:05.932Z,79.60
2018-04-12T08:25:34.647Z,74.70
2018-04-12T08:28:02.925Z,74.70
2018-04-12T08:30:30.487Z,71.20
2018-04-12T08:32:58.052Z,69.10
2018-04-12T08:35:25.646Z,68.30
2018-04-12T08:37:54.197Z,66.40
2018-04-12T08:40:21.835Z,66.30
2018-04-12T08:42:49.860Z,63.90
2018-04-12T08:45:17.389Z,63.90
2018-04-12T08:47:45.876Z,65.10
2018-04-12T08:50:14.336Z,63.90
2018-04-12T08:52:41.949Z,64.70
2018-04-12T08:55:09.467Z,65.40
2018-04-12T08:57:37.042Z,64.90
2018-04-12T09:00:05.022Z,64.50
2018-04-12T09:02:32.615Z,64.20
2018-04-12T09:07:53.891Z,63.80
2018-04-12T09:10:21.450Z,63.00
2018-04-12T09:12:49.884Z,61.10
2018-04-12T09:15:19.211Z,59.90
2018-04-12T09:17:46.756Z,60.20
2018-04-12T09:20:14.720Z,60.60
2018-04-12T09:22:42.741Z,59.40
2018-04-12T09:25:10.305Z,59.40
2018-04-12T09:27:37.957Z,57.50
2018-04-12T09:30:05.558Z,58.50
2018-04-12T09:32:33.119Z,59.70
2018-04-12T09:35:00.669Z,56.60
2018-04-12T09:37:28.215Z,57.60
2018-04-12T09:39:56.699Z,59.30
2018-04-12T09:42:24.259Z,57.60
2018-04-12T09:44:51.785Z,57.80
2018-04-12T09:47:20.324Z,57.80
2018-04-12T09:49:47.903Z,56.70
2018-04-12T09:52:15.833Z,57.10
2018-04-12T09:54:43.438Z,57.10
2018-04-12T09:57:11.295Z,55.80
2018-04-12T09:59:39.251Z,52.60
2018-04-12T10:02:06.795Z,52.50
2018-04-12T10:04:40.840Z,53.80
2018-04-12T10:07:08.844Z,51.70
2018-04-12T10:09:36.446Z,51.70
2018-04-12T10:12:04.106Z,51.00
2018-04-12T10:14:31.926Z,50.50
2018-04-12T10:16:59.488Z,50.40
2018-04-12T10:19:27.844Z,48.40
2018-04-12T10:21:55.453Z,50.80
2018-04-12T10:24:23.963Z,50.10
2018-04-12T10:26:51.941Z,48.00
2018-04-12T10:29:20.107Z,49.00
2018-04-12T10:31:47.648Z,49.00
2018-04-12T10:34:15.223Z,47.90
2018-04-12T10:36:43.907Z,45.90
2018-04-12T10:39:11.458Z,45.90
2018-04-12T10:41:39.338Z,47.40
2018-04-12T10:44:07.485Z,47.50
2018-04-12T10:46:35.163Z,47.30
2018-04-12T10:49:03.173Z,46.10
2018-04-12T10:51:32.303Z,44.40
2018-04-12T10:53:59.821Z,44.40
2018-04-12T10:56:27.384Z,43.90
2018-04-12T10:58:54.944Z,44.00
2018-04-12T11:01:22.604Z,43.90
2018-04-12T11:03:50.546Z,44.60
2018-04-12T11:06:18.109Z,44.60
2018-04-12T11:08:45.688Z,44.00
2018-04-12T11:11:13.236Z,46.30
2018-04-12T11:13:41.441Z,41.40
2018-04-12T11:16:09.041Z,41.30
2018-04-12T11:18:36.575Z,41.80
2018-04-12T11:21:04.216Z,44.40
2018-04-12T11:23:32.669Z,42.70
2018-04-12T11:26:02.309Z,41.00
2018-04-12T11:28:30.259Z,41.00
2018-04-12T11:30:58.213Z,43.60
2018-04-12T11:33:26.172Z,38.70
2018-04-12T11:35:53.708Z,38.70
2018-04-12T11:38:21.316Z,42.70
2018-04-12T11:40:49.299Z,40.80
2018-04-12T11:43:16.893Z,40.80
2018-04-12T11:45:45.313Z,38.60
2018-04-12T11:48:12.895Z,34.80
2018-04-12T11:50:40.448Z,31.10
2018-04-12T11:53:08.773Z,28.90
2018-04-12T11:55:36.389Z,26.80
2018-04-12T11:58:04.056Z,25.20
2018-04-12T12:00:31.862Z,26.50
2018-04-12T12:03:00.155Z,26.20
2018-04-12T12:05:27.797Z,26.90
2018-04-12T12:07:55.355Z,27.00
2018-04-12T12:10:22.912Z,27.00
2018-04-12T12:12:50.454Z,27.10
2018-04-12T12:15:18.182Z,25.20
2018-04-12T12:17:46.190Z,25.60
2018-04-12T12:20:13.789Z,25.70
2018-04-12T12:22:41.430Z,25.90
2018-04-12T12:25:10.094Z,24.90
2018-04-12T12:27:37.722Z,23.40
2018-04-12T12:30:05.708Z,26.10
2018-04-12T12:32:33.825Z,26.20
2018-04-12T12:35:01.451Z,29.40
2018-04-12T12:37:29.003Z,30.80
2018-04-12T12:39:57.424Z,33.80
2018-04-12T12:42:24.969Z,32.00
2018-04-12T12:44:52.541Z,33.30
2018-04-12T12:47:20.587Z,32.90
2018-04-12T12:49:48.128Z,30.70
2018-04-12T12:52:16.089Z,29.40
2018-04-12T12:54:44.691Z,29.40
2018-04-12T12:57:13.765Z,30.90
2018-04-12T12:59:41.743Z,34.60
2018-04-12T13:02:10.634Z,37.50
2018-04-12T13:04:38.215Z,37.50
2018-04-12T13:07:05.797Z,39.50
2018-04-12T13:09:33.366Z,41.20
2018-04-12T13:12:01.659Z,43.10
2018-04-12T13:14:29.252Z,45.20
2018-04-12T13:16:57.032Z,45.20
2018-04-12T13:19:24.627Z,44.30
2018-04-12T13:21:52.829Z,42.70
2018-04-12T13:24:22.747Z,44.10
2018-04-12T13:26:50.874Z,44.70
2018-04-12T13:29:18.915Z,44.70
2018-04-12T13:31:47.348Z,45.70
2018-04-12T13:34:15.071Z,45.90
2018-04-12T13:36:42.716Z,47.10
2018-04-12T13:39:11.174Z,46.30
2018-04-12T13:41:38.824Z,46.30
2018-04-12T13:44:06.371Z,45.50
2018-04-12T13:49:07.469Z,45.30
2018-04-12T13:51:37.031Z,44.40
2018-04-12T13:54:04.637Z,44.40
2018-04-12T13:56:32.185Z,42.40
2018-04-12T13:58:59.925Z,42.90
2018-04-12T14:01:28.092Z,43.30
2018-04-12T14:03:55.654Z,45.20
2018-04-12T14:06:23.220Z,45.50
2018-04-12T14:08:50.987Z,43.50
2018-04-12T14:11:18.528Z,43.30
2018-04-12T14:13:46.077Z,42.10
2018-04-12T14:16:14.153Z,42.10
2018-04-12T14:18:41.709Z,42.70
2018-04-12T14:21:09.405Z,44.70
2018-04-12T14:23:37.034Z,45.20
2018-04-12T14:26:04.677Z,46.70
2018-04-12T14:28:32.323Z,44.20
2018-04-12T14:30:59.955Z,43.50
2018-04-12T14:33:27.532Z,44.20
2018-04-12T14:35:55.266Z,43.30
2018-04-12T14:38:22.848Z,43.70
2018-04-12T14:40:50.859Z,42.70
2018-04-12T14:43:19.131Z,42.70
2018-04-12T14:45:46.725Z,39.50
2018-04-12T14:48:14.535Z,39.10
2018-04-12T14:50:42.518Z,37.10
2018-04-12T14:53:10.298Z,37.10
2018-04-12T14:55:38.727Z,37.50
2018-04-12T14:58:06.741Z,39.70
2018-04-12T15:00:34.348Z,39.70
2018-04-12T15:03:01.903Z,41.40
2018-04-12T15:05:31.008Z,42.00
2018-04-12T15:07:59.521Z,43.80
2018-04-12T15:10:27.081Z,44.80
2018-04-12T15:12:54.693Z,46.50
2018-04-12T15:15:22.866Z,44.00
2018-04-12T15:17:50.451Z,44.30
2018-04-12T15:20:18.124Z,44.90
2018-04-12T15:22:46.775Z,42.20
2018-04-12T15:25:14.437Z,42.20
2018-04-12T15:27:42.081Z,42.70
2018-04-12T15:30:09.695Z,41.40
2018-04-12T15:32:37.319Z,41.50
2018-04-12T15:35:05.015Z,41.80
2018-04-12T15:37:32.843Z,41.70
2018-04-12T15:40:00.513Z,42.30
2018-04-12T15:42:37.305Z,44.10
2018-04-12T15:45:05.874Z,44.10
2018-04-12T15:47:33.447Z,46.30
2018-04-12T15:50:01.097Z,46.70
2018-04-12T15:52:28.726Z,47.00
2018-04-12T15:54:56.509Z,47.00
2018-04-12T15:57:24.413Z,46.90
2018-04-12T15:59:52.377Z,46.80
2018-04-12T16:02:20.797Z,46.80
2018-04-12T16:04:48.454Z,45.30
2018-04-12T16:07:16.501Z,43.20
2018-04-12T16:09:44.119Z,43.10
2018-04-12T16:12:11.723Z,42.70
2018-04-12T16:14:40.253Z,44.40
2018-04-12T16:17:08.241Z,45.20
2018-04-12T16:19:35.924Z,46.90
2018-04-12T16:22:03.558Z,48.00
2018-04-12T16:24:31.169Z,48.90
2018-04-12T16:26:59.804Z,49.10
2018-04-12T16:29:27.497Z,49.40
2018-04-12T16:31:55.193Z,49.50
2018-04-12T16:34:25.078Z,50.40
2018-04-12T16:36:55.282Z,49.20
2018-04-12T16:39:23.036Z,49.20
2018-04-12T16:41:56.280Z,48.20
2018-04-12T16:44:26.167Z,48.80
2018-04-12T16:46:53.936Z,49.70
2018-04-12T16:49:21.978Z,48.20
2018-04-12T16:51:50.755Z,48.20
2018-04-12T16:54:23.074Z,45.30
2018-04-12T16:56:51.033Z,42.90
2018-04-12T16:59:20.581Z,44.00
2018-04-12T17:04:44.742Z,45.40
2018-04-12T17:07:14.749Z,47.10
2018-04-12T17:09:48.978Z,47.10
2018-04-12T17:12:29.863Z,47.00
2018-04-12T17:50:13.131Z,57.00
2018-04-12T17:52:41.058Z,57.10
2018-04-12T17:55:08.623Z,57.20
2018-04-12T17:57:36.671Z,57.70
2018-04-12T18:00:04.243Z,58.30
2018-04-12T18:02:33.436Z,58.80
2018-04-12T18:05:00.981Z,59.30
2018-04-12T18:07:29.304Z,59.80
2018-04-12T18:09:57.496Z,62.40
2018-04-12T18:12:25.067Z,62.40
2018-04-12T18:14:52.696Z,64.00
2018-04-12T18:17:20.234Z,65.10
2018-04-12T18:19:47.792Z,66.00
2018-04-12T18:22:15.391Z,67.20
2018-04-12T18:24:43.356Z,68.50
2018-04-12T18:27:14.041Z,68.50
2018-04-12T18:29:41.632Z,69.30
2018-04-12T18:32:09.297Z,69.80
2018-04-12T18:34:36.919Z,70.90
2018-04-12T18:37:04.428Z,71.20
2018-04-12T18:39:32.417Z,72.00
2018-04-12T18:42:00.016Z,72.00
2018-04-12T18:44:27.542Z,72.70
2018-04-12T18:46:55.075Z,73.10
2018-04-12T18:49:22.653Z,72.10
2018-04-12T18:51:50.240Z,71.10
2018-04-12T18:54:18.018Z,70.40
2018-04-12T18:56:45.652Z,68.90
2018-04-12T18:59:13.261Z,70.40
2018-04-12T19:01:40.799Z,70.50
2018-04-12T19:04:08.356Z,71.10
2018-04-12T19:06:35.954Z,71.00
2018-04-12T19:09:03.560Z,71.30
2018-04-12T19:11:31.177Z,72.20
2018-04-12T19:13:59.153Z,72.20
2018-04-12T19:16:27.136Z,72.20
2018-04-12T19:19:09.735Z,71.40
2018-04-12T19:21:37.488Z,71.40
2018-04-12T19:24:05.314Z,71.60
2018-04-12T19:26:32.953Z,72.60
2018-04-12T19:29:00.519Z,72.40
2018-04-12T19:31:28.074Z,72.20
2018-04-12T19:33:55.775Z,72.90
2018-04-12T19:36:23.309Z,73.50
2018-04-12T19:38:50.883Z,74.10
2018-04-12T19:41:18.539Z,75.10
2018-04-12T19:43:46.105Z,75.20
2018-04-12T19:46:13.710Z,74.70
2018-04-12T19:48:41.652Z,74.70
2018-04-12T19:51:09.234Z,74.70
2018-04-12T19:53:36.812Z,75.50
2018-04-12T19:56:04.765Z,76.90
2018-04-12T19:58:33.178Z,76.80
2018-04-12T20:01:00.837Z,77.20
2018-04-12T20:03:28.439Z,77.50
2018-04-12T20:05:57.183Z,76.80
2018-04-12T20:08:24.757Z,77.10
2018-04-12T20:10:59.254Z,77.10
2018-04-12T20:13:28.175Z,78.00
2018-04-12T20:15:56.373Z,78.00
2018-04-12T20:18:23.988Z,77.80
2018-04-12T20:20:51.734Z,77.10
2018-04-12T20:23:19.731Z,77.50
2018-04-12T20:25:47.357Z,77.50
2018-04-12T20:28:15.358Z,75.90
2018-04-12T20:30:42.927Z,75.80
2018-04-12T20:33:10.941Z,76.70
2018-04-12T20:35:38.508Z,77.40
2018-04-12T20:38:07.021Z,76.60
2018-04-12T20:40:34.633Z,77.00
2018-04-12T20:43:02.212Z,76.20
2018-04-12T20:45:29.775Z,76.50
2018-04-12T20:47:58.169Z,76.80
2018-04-12T20:50:25.741Z,77.30
2018-04-12T20:52:53.315Z,77.80
2018-04-12T20:55:20.889Z,77.80
2018-04-12T20:57:49.401Z,77.60
2018-04-12T21:00:17.029Z,77.10
2018-04-12T21:02:45.555Z,77.90
2018-04-12T21:05:13.128Z,77.70
2018-04-12T21:07:40.687Z,77.00
2018-04-12T21:10:08.265Z,77.30
2018-04-12T21:12:35.836Z,77.80
2018-04-12T21:15:03.473Z,77.90
2018-04-12T21:17:30.957Z,77.80
2018-04-12T21:19:58.510Z,77.30
2018-04-12T21:22:26.993Z,76.90
2018-04-12T21:24:54.591Z,76.70
2018-04-12T21:27:22.163Z,77.60
2018-04-12T21:29:49.731Z,77.80
2018-04-12T21:32:17.691Z,79.30
2018-04-12T21:34:45.271Z,79.30
2018-04-12T21:37:12.832Z,80.00
2018-04-12T21:39:40.762Z,80.60
2018-04-12T21:42:08.327Z,80.60
2018-04-12T21:44:36.256Z,80.30
2018-04-12T21:47:03.781Z,79.60
2018-04-12T21:49:31.730Z,78.80
2018-04-12T21:51:59.282Z,78.80
2018-04-12T21:54:26.862Z,78.30
2018-04-12T21:56:54.488Z,77.60
2018-04-12T21:59:22.003Z,77.40
2018-04-12T22:01:49.616Z,77.10
2018-04-12T22:04:17.197Z,76.80
2018-04-12T22:06:44.757Z,76.70
2018-04-12T22:09:12.309Z,76.70
2018-04-12T22:11:39.975Z,76.90
2018-04-12T22:14:07.504Z,76.80
2018-04-12T22:16:37.754Z,76.80
2018-04-12T22:19:05.338Z,76.90
2018-04-12T22:21:33.297Z,77.10
2018-04-12T22:24:01.258Z,77.10
2018-04-12T22:26:28.834Z,77.10
2018-04-12T22:28:58.151Z,76.60
2018-04-12T22:31:25.814Z,76.60
2018-04-12T22:33:53.352Z,76.40
2018-04-12T22:36:21.328Z,75.80
2018-04-12T22:38:49.311Z,75.60
2018-04-12T22:41:16.898Z,75.50
2018-04-12T22:43:44.646Z,75.50
2018-04-12T22:46:12.772Z,75.40
2018-04-12T22:48:40.335Z,75.50
2018-04-12T22:51:08.288Z,75.70
2018-04-12T22:53:36.501Z,75.70
2018-04-12T22:56:04.889Z,76.20
2018-04-12T22:58:34.224Z,75.90
2018-04-12T23:01:01.870Z,75.90
2018-04-12T23:03:29.477Z,76.10
2018-04-12T23:05:57.616Z,76.20
2018-04-12T23:08:25.166Z,76.20
2018-04-12T23:10:52.743Z,76.20
2018-04-12T23:13:20.295Z,76.30
2018-04-12T23:15:47.962Z,76.20
2018-04-12T23:18:15.645Z,76.30
2018-04-12T23:20:43.270Z,76.60
2018-04-12T23:23:10.817Z,76.50
2018-04-12T23:25:38.369Z,76.20
2018-04-12T23:28:11.021Z,75.60
2018-04-12T23:30:38.630Z,75.60
2018-04-12T23:33:06.174Z,75.20
2018-04-12T23:35:33.746Z,75.20
2018-04-12T23:38:01.297Z,74.80
2018-04-12T23:40:28.850Z,74.60
2018-04-12T23:42:56.411Z,75.10
2018-04-12T23:45:23.958Z,75.20
2018-04-12T23:47:51.921Z,75.60
2018-04-12T23:50:21.912Z,75.60
2018-04-12T23:52:49.438Z,75.60
2018-04-12T23:55:16.997Z,75.80
2018-04-12T23:57:44.818Z,75.90
